createdAt,value
2023-05-03T00:03:57.091Z,101578
2023-05-03T00:09:49.654Z,101573
2023-05-03T00:15:41.120Z,101555
2023-05-03T00:21:33.111Z,101549
2023-05-03T00:27:25.964Z,101543
2023-05-03T00:33:17.628Z,101550
2023-05-03T00:39:08.474Z,101544
2023-05-03T00:44:59.562Z,101546
2023-05-03T00:50:48.754Z,101548
2023-05-03T00:56:54.525Z,101544
2023-05-03T01:02:45.091Z,101553
2023-05-03T01:08:37.685Z,101551
2023-05-03T01:14:29.448Z,101553
2023-05-03T01:20:20.924Z,101554
2023-05-03T01:26:12.961Z,101555
2023-05-03T01:32:04.661Z,101551
2023-05-03T01:37:56.555Z,101558
2023-05-03T01:43:48.225Z,101563
2023-05-03T01:49:41.231Z,101565
2023-05-03T01:55:33.024Z,101568
2023-05-03T02:01:24.907Z,101569
2023-05-03T02:07:17.243Z,101569
2023-05-03T02:13:10.761Z,101574
2023-05-03T02:19:02.655Z,101569
2023-05-03T02:24:55.483Z,101577
2023-05-03T02:30:47.696Z,101577
2023-05-03T02:36:38.962Z,101583
2023-05-03T02:42:31.018Z,101584
2023-05-03T02:48:22.744Z,101586
2023-05-03T02:54:14.376Z,101594
2023-05-03T03:00:06.854Z,101592
2023-05-03T03:06:00.622Z,101589
2023-05-03T03:11:51.286Z,101581
2023-05-03T03:17:42.794Z,101579
2023-05-03T03:23:36.176Z,101578
2023-05-03T03:29:28.307Z,101577
2023-05-03T03:35:18.868Z,101584
2023-05-03T03:41:10.574Z,101573
2023-05-03T03:47:03.079Z,101576
2023-05-03T03:52:54.589Z,101572
2023-05-03T03:58:46.531Z,101564
2023-05-03T04:04:39.000Z,101570
2023-05-03T04:10:30.483Z,101563
2023-05-03T04:16:22.552Z,101559
2023-05-03T04:22:14.348Z,101553
2023-05-03T04:28:06.626Z,101558
2023-05-03T04:33:58.583Z,101557
2023-05-03T04:39:50.238Z,101552
2023-05-03T04:45:42.678Z,101544
2023-05-03T04:51:34.479Z,101541
2023-05-03T04:57:26.736Z,101547
2023-05-03T05:03:19.042Z,101567
2023-05-03T05:09:11.528Z,101567
2023-05-03T05:15:04.427Z,101570
2023-05-03T05:20:56.620Z,101576
2023-05-03T05:26:48.910Z,101588
2023-05-03T05:32:41.308Z,101595
2023-05-03T05:38:33.928Z,101594
2023-05-03T05:44:27.828Z,101588
2023-05-03T05:50:25.540Z,101604
2023-05-03T05:56:15.982Z,101610
2023-05-03T06:08:40.889Z,101618
2023-05-03T06:21:46.000Z,101617
2023-05-03T06:28:02.006Z,101611
2023-05-03T07:08:27.086Z,101622
2023-05-03T07:14:52.124Z,101616
2023-05-03T07:21:16.408Z,101623
2023-05-03T07:27:25.536Z,101614
2023-05-03T07:33:18.387Z,101614
2023-05-03T07:39:12.043Z,101610
2023-05-03T07:45:27.221Z,101606
2023-05-03T07:51:30.117Z,101584
2023-05-03T07:57:36.502Z,101581
2023-05-03T08:03:34.673Z,101581
2023-05-03T08:09:48.331Z,101579
2023-05-03T08:16:05.285Z,101580
2023-05-03T08:28:42.858Z,101562
2023-05-03T08:34:52.152Z,101570
2023-05-03T08:40:46.570Z,101565
2023-05-03T08:46:38.701Z,101574
2023-05-03T08:52:33.765Z,101558
2023-05-03T08:58:26.181Z,101559
2023-05-03T09:04:20.534Z,101548
2023-05-03T09:10:19.778Z,101547
2023-05-03T09:43:44.648Z,101524
2023-05-03T10:10:21.686Z,101500
2023-05-03T10:29:14.687Z,101483
2023-05-03T10:35:38.772Z,101478
2023-05-03T10:41:45.856Z,101464
2023-05-03T10:47:40.938Z,101457
2023-05-03T10:53:47.224Z,101447
2023-05-03T11:18:27.264Z,101427
2023-05-03T11:42:55.986Z,101410
2023-05-03T11:48:52.311Z,101398
2023-05-03T11:54:43.415Z,101399
2023-05-03T12:00:36.123Z,101400
2023-05-03T12:06:32.263Z,101388
2023-05-03T12:12:48.642Z,101384
2023-05-03T12:18:47.264Z,101382
2023-05-03T12:24:49.566Z,101372
2023-05-03T12:30:53.135Z,101354
2023-05-03T12:36:53.939Z,101352
2023-05-03T12:43:06.832Z,101355
2023-05-03T12:49:24.911Z,101342
2023-05-03T12:55:32.902Z,101332
2023-05-03T13:02:22.387Z,101325
2023-05-03T13:08:59.786Z,101314
2023-05-03T13:14:59.801Z,101301
2023-05-03T13:38:46.504Z,101264
2023-05-03T13:44:40.004Z,101257
2023-05-03T13:50:31.065Z,101244
2023-05-03T13:56:37.142Z,101231
2023-05-03T14:20:15.844Z,101213
2023-05-03T14:44:21.576Z,101178
2023-05-03T14:50:14.377Z,101175
2023-05-03T14:56:07.633Z,101163
2023-05-03T15:02:01.273Z,101160
2023-05-03T15:08:03.492Z,101156
2023-05-03T15:13:58.867Z,101155
2023-05-03T15:20:08.343Z,101144
2023-05-03T15:32:00.962Z,101148
2023-05-03T15:38:20.697Z,101143
2023-05-03T15:44:19.878Z,101135
2023-05-03T15:50:13.713Z,101129
2023-05-03T15:56:09.413Z,101122
2023-05-03T16:02:01.771Z,101128
2023-05-03T16:07:58.587Z,101108
2023-05-03T16:13:54.089Z,101115
2023-05-03T16:20:03.825Z,101115
2023-05-03T16:32:18.457Z,101101
2023-05-03T16:38:10.069Z,101104
2023-05-03T16:44:03.880Z,101091
2023-05-03T16:50:20.084Z,101085
2023-05-03T17:02:03.544Z,101094
2023-05-03T17:07:59.420Z,101090
2023-05-03T17:14:08.389Z,101090
2023-05-03T17:20:07.637Z,101085
2023-05-03T17:25:59.483Z,101086
2023-05-03T17:31:57.005Z,101084
2023-05-03T17:44:25.914Z,101085
2023-05-03T17:50:22.000Z,101079
2023-05-03T17:56:16.351Z,101082
2023-05-03T18:02:11.446Z,101084
2023-05-03T18:08:06.296Z,101087
2023-05-03T18:13:59.579Z,101091
2023-05-03T18:19:54.938Z,101093
2023-05-03T18:25:48.758Z,101090
2023-05-03T18:31:42.139Z,101096
2023-05-03T18:37:33.474Z,101100
2023-05-03T18:43:24.308Z,101107
2023-05-03T18:49:15.437Z,101112
2023-05-03T18:55:07.040Z,101105
2023-05-03T19:01:01.002Z,101106
2023-05-03T19:06:53.073Z,101103
2023-05-03T19:12:46.095Z,101105
2023-05-03T19:18:37.659Z,101110
2023-05-03T19:24:29.543Z,101118
2023-05-03T19:30:21.095Z,101119
2023-05-03T19:36:12.711Z,101115
2023-05-03T19:42:04.597Z,101119
2023-05-03T19:47:57.421Z,101120
2023-05-03T19:53:54.059Z,101117
2023-05-03T19:59:45.698Z,101110
2023-05-03T20:05:38.151Z,101113
2023-05-03T20:11:35.460Z,101114
2023-05-03T20:17:29.821Z,101121
2023-05-03T20:23:22.534Z,101114
2023-05-03T20:29:15.051Z,101111
2023-05-03T20:35:12.301Z,101106
2023-05-03T20:41:03.942Z,101107
2023-05-03T20:46:55.947Z,101105
2023-05-03T20:52:58.079Z,101103
2023-05-03T20:58:50.747Z,101102
2023-05-03T21:04:44.192Z,101097
2023-05-03T21:10:39.582Z,101101
2023-05-03T21:16:30.162Z,101101
2023-05-03T22:24:57.748Z,101064
2023-05-03T22:30:49.554Z,101061
2023-05-03T22:36:42.084Z,101061
2023-05-03T22:55:54.955Z,101059
2023-05-03T23:02:28.242Z,101049
2023-05-03T23:39:58.823Z,101040
2023-05-03T23:52:02.883Z,101019
